createdAt,value
2022-07-30T00:02:09.704Z,22.98
2022-07-30T00:04:39.244Z,22.90
2022-07-30T00:07:06.289Z,22.83
2022-07-30T00:09:33.303Z,22.86
2022-07-30T00:12:01.725Z,22.83
2022-07-30T00:14:28.664Z,22.88
2022-07-30T00:16:55.601Z,22.92
2022-07-30T00:19:22.610Z,22.83
2022-07-30T00:21:52.422Z,22.96
2022-07-30T00:24:21.079Z,22.96
2022-07-30T00:26:53.615Z,22.85
2022-07-30T00:29:20.505Z,22.98
2022-07-30T00:31:49.670Z,23.03
2022-07-30T00:34:22.345Z,22.84
2022-07-30T00:36:51.816Z,22.73
2022-07-30T00:39:18.773Z,22.84
2022-07-30T00:42:06.432Z,22.53
2022-07-30T00:44:33.533Z,22.67
2022-07-30T00:47:00.803Z,22.74
2022-07-30T00:49:28.176Z,22.58
2022-07-30T00:51:55.316Z,22.67
2022-07-30T00:54:22.585Z,22.72
2022-07-30T00:56:50.084Z,22.77
2022-07-30T00:59:17.379Z,22.74
2022-07-30T01:01:44.546Z,22.65
2022-07-30T01:04:14.786Z,22.62
2022-07-30T01:06:44.270Z,22.61
2022-07-30T01:09:13.752Z,22.62
2022-07-30T01:11:44.410Z,22.65
2022-07-30T01:14:11.313Z,22.64
2022-07-30T01:16:41.705Z,22.45
2022-07-30T01:19:38.661Z,22.58
2022-07-30T01:22:33.928Z,22.71
2022-07-30T01:25:04.011Z,22.71
2022-07-30T01:27:36.901Z,22.64
2022-07-30T01:30:08.562Z,22.73
2022-07-30T01:32:42.147Z,22.68
2022-07-30T01:35:11.373Z,22.74
2022-07-30T01:37:42.581Z,22.75
2022-07-30T01:40:10.311Z,22.83
2022-07-30T01:42:41.324Z,22.84
2022-07-30T01:45:11.637Z,22.78
2022-07-30T01:47:42.080Z,22.72
2022-07-30T01:50:16.045Z,22.69
2022-07-30T01:52:46.022Z,22.81
2022-07-30T01:55:24.999Z,22.82
2022-07-30T01:57:54.119Z,22.82
2022-07-30T02:00:25.735Z,22.84
2022-07-30T02:02:52.664Z,22.90
2022-07-30T02:05:24.266Z,22.79
2022-07-30T02:08:07.425Z,22.86
2022-07-30T02:10:44.093Z,22.94
2022-07-30T02:13:16.765Z,22.86
2022-07-30T02:15:54.944Z,22.73
2022-07-30T02:18:28.734Z,22.83
2022-07-30T02:21:07.604Z,22.90
2022-07-30T02:23:48.097Z,22.93
2022-07-30T02:26:19.305Z,22.86
2022-07-30T02:28:51.156Z,22.87
2022-07-30T02:31:25.566Z,22.82
2022-07-30T02:34:01.631Z,22.82
2022-07-30T02:36:29.941Z,22.88
2022-07-30T02:39:01.612Z,22.93
2022-07-30T02:41:31.381Z,22.74
2022-07-30T02:43:59.656Z,22.77
2022-07-30T02:46:27.875Z,22.70
2022-07-30T02:48:58.562Z,22.76
2022-07-30T02:51:30.797Z,22.75
2022-07-30T02:54:00.474Z,22.67
2022-07-30T02:56:31.382Z,22.62
2022-07-30T02:59:01.399Z,22.67
2022-07-30T03:01:31.895Z,22.69
2022-07-30T03:03:59.424Z,22.62
2022-07-30T03:06:31.974Z,22.69
2022-07-30T03:09:02.535Z,22.65
2022-07-30T03:11:34.655Z,22.71
2022-07-30T03:14:07.965Z,22.66
2022-07-30T03:16:41.936Z,22.58
2022-07-30T03:19:14.500Z,22.56
2022-07-30T03:21:46.272Z,22.59
2022-07-30T03:24:15.061Z,22.68
2022-07-30T03:26:46.193Z,22.49
2022-07-30T03:29:14.653Z,22.60
2022-07-30T03:31:42.690Z,22.55
2022-07-30T03:34:12.862Z,22.24
2022-07-30T03:36:44.285Z,22.23
2022-07-30T03:39:12.178Z,22.26
2022-07-30T03:41:42.016Z,21.97
2022-07-30T03:44:09.438Z,21.73
2022-07-30T03:46:38.875Z,21.98
2022-07-30T03:49:09.131Z,22.09
2022-07-30T03:51:37.644Z,22.06
2022-07-30T03:54:13.149Z,22.20
2022-07-30T03:56:41.562Z,21.98
2022-07-30T03:59:13.493Z,21.92
2022-07-30T04:01:42.851Z,21.86
2022-07-30T04:04:10.840Z,21.74
2022-07-30T04:06:43.259Z,21.70
2022-07-30T04:09:12.370Z,21.91
2022-07-30T04:11:41.551Z,21.99
2022-07-30T04:14:09.449Z,22.03
2022-07-30T04:17:18.467Z,22.04
2022-07-30T04:20:00.022Z,22.00
2022-07-30T04:22:36.425Z,21.97
2022-07-30T04:25:12.031Z,22.14
2022-07-30T04:28:02.766Z,22.14
2022-07-30T04:30:35.367Z,22.02
2022-07-30T04:33:04.644Z,22.09
2022-07-30T04:35:51.036Z,21.97
2022-07-30T04:38:20.279Z,21.89
2022-07-30T04:40:48.108Z,22.03
2022-07-30T04:43:17.521Z,21.97
2022-07-30T04:45:45.007Z,22.05
2022-07-30T04:48:11.984Z,22.19
2022-07-30T04:50:43.080Z,22.13
2022-07-30T04:53:11.062Z,22.24
2022-07-30T04:55:42.521Z,22.24
2022-07-30T04:58:11.420Z,22.20
2022-07-30T05:00:41.342Z,22.25
2022-07-30T05:03:12.866Z,22.34
2022-07-30T05:05:43.328Z,22.37
2022-07-30T05:08:10.633Z,22.22
2022-07-30T05:10:38.510Z,22.46
2022-07-30T05:13:11.230Z,22.52
2022-07-30T05:15:44.765Z,22.61
2022-07-30T05:18:14.834Z,22.59
2022-07-30T05:20:44.877Z,22.72
2022-07-30T05:23:11.790Z,22.63
2022-07-30T05:25:38.631Z,22.63
2022-07-30T05:28:05.580Z,22.77
2022-07-30T05:30:32.530Z,22.75
2022-07-30T05:33:08.723Z,22.78
2022-07-30T05:35:42.730Z,22.77
2022-07-30T05:38:09.631Z,22.86
2022-07-30T05:40:36.537Z,22.90
2022-07-30T05:43:06.074Z,22.96
2022-07-30T05:45:33.163Z,23.08
2022-07-30T05:48:00.048Z,23.24
2022-07-30T05:50:29.235Z,23.33
2022-07-30T05:52:58.546Z,23.37
2022-07-30T05:55:25.508Z,23.66
2022-07-30T06:02:01.294Z,23.65
2022-07-30T06:04:28.233Z,23.64
2022-07-30T06:06:55.340Z,23.56
2022-07-30T06:09:22.278Z,23.72
2022-07-30T06:11:57.607Z,23.75
2022-07-30T06:14:26.713Z,23.73
2022-07-30T06:16:53.667Z,23.87
2022-07-30T06:19:22.846Z,23.96
2022-07-30T06:22:05.860Z,23.88
2022-07-30T06:24:34.514Z,23.84
2022-07-30T06:27:02.102Z,24.03
2022-07-30T06:29:29.331Z,24.13
2022-07-30T06:31:56.571Z,24.44
2022-07-30T06:34:23.544Z,24.46
2022-07-30T06:36:52.668Z,24.63
2022-07-30T06:39:56.592Z,24.70
2022-07-30T06:42:08.867Z,24.83
2022-07-30T06:44:35.730Z,24.95
2022-07-30T06:47:07.733Z,24.68
2022-07-30T06:49:37.982Z,24.23
2022-07-30T06:52:07.965Z,24.22
2022-07-30T06:54:37.333Z,24.40
2022-07-30T06:57:04.492Z,24.35
2022-07-30T06:59:56.378Z,24.14
2022-07-30T07:02:24.525Z,24.73
2022-07-30T07:04:51.588Z,24.36
2022-07-30T07:07:37.421Z,24.51
2022-07-30T07:10:08.976Z,24.45
2022-07-30T07:12:35.974Z,24.36
2022-07-30T07:15:08.760Z,24.61
2022-07-30T07:17:35.754Z,24.76
2022-07-30T07:20:05.363Z,25.18
2022-07-30T07:22:32.342Z,25.33
2022-07-30T07:25:01.981Z,24.92
2022-07-30T07:27:32.584Z,25.15
2022-07-30T07:30:01.168Z,25.05
2022-07-30T07:32:31.977Z,25.08
2022-07-30T07:35:04.056Z,24.64
2022-07-30T07:37:33.074Z,24.79
2022-07-30T07:40:04.602Z,24.92
2022-07-30T07:42:31.689Z,25.14
2022-07-30T07:45:00.741Z,25.21
2022-07-30T07:47:27.616Z,25.20
2022-07-30T07:49:57.607Z,25.20
2022-07-30T07:52:24.476Z,24.77
2022-07-30T07:54:53.849Z,25.17
2022-07-30T07:57:20.727Z,25.18
2022-07-30T07:59:47.928Z,25.06
2022-07-30T08:02:19.604Z,25.04
2022-07-30T08:04:49.597Z,25.30
2022-07-30T08:07:19.161Z,25.46
2022-07-30T08:09:46.031Z,24.82
2022-07-30T08:12:16.078Z,25.51
2022-07-30T08:14:42.994Z,26.02
2022-07-30T08:17:10.415Z,26.48
2022-07-30T08:19:37.443Z,26.73
2022-07-30T08:22:04.379Z,26.76
2022-07-30T08:24:31.471Z,27.08
2022-07-30T08:27:03.483Z,27.40
2022-07-30T08:29:30.747Z,27.42
2022-07-30T08:31:57.778Z,27.12
2022-07-30T08:34:27.058Z,26.83
2022-07-30T08:36:54.023Z,27.24
2022-07-30T08:39:25.667Z,27.81
2022-07-30T08:41:52.735Z,27.60
2022-07-30T08:44:22.996Z,27.88
2022-07-30T08:46:56.368Z,28.25
2022-07-30T08:49:23.904Z,27.88
2022-07-30T08:51:54.192Z,27.57
2022-07-30T08:54:23.825Z,27.87
2022-07-30T08:56:50.805Z,28.26
2022-07-30T08:59:18.498Z,28.16
2022-07-30T09:01:47.756Z,28.34
2022-07-30T09:04:17.054Z,27.95
2022-07-30T09:06:49.934Z,28.26
2022-07-30T09:09:17.144Z,28.66
2022-07-30T09:11:46.294Z,29.12
2022-07-30T09:14:15.103Z,29.54
2022-07-30T09:16:43.918Z,29.48
2022-07-30T09:19:20.646Z,29.29
2022-07-30T09:22:00.024Z,29.04
2022-07-30T09:24:27.818Z,28.89
2022-07-30T09:27:03.176Z,29.71
2022-07-30T09:29:31.956Z,30.23
2022-07-30T09:32:01.173Z,30.50
2022-07-30T09:34:33.671Z,30.75
2022-07-30T09:37:05.472Z,30.87
2022-07-30T09:39:37.258Z,31.32
2022-07-30T09:42:23.774Z,31.77
2022-07-30T09:45:07.349Z,31.51
2022-07-30T09:47:39.978Z,31.41
2022-07-30T09:50:30.182Z,31.30
2022-07-30T09:53:09.079Z,31.45
2022-07-30T09:55:41.486Z,31.28
2022-07-30T09:58:12.887Z,31.54
2022-07-30T10:00:49.078Z,31.78
2022-07-30T10:03:21.644Z,31.84
2022-07-30T10:06:03.090Z,31.98
2022-07-30T10:08:51.937Z,32.03
2022-07-30T10:11:24.384Z,32.30
2022-07-30T10:13:57.915Z,32.64
2022-07-30T10:16:32.949Z,32.78
2022-07-30T10:19:00.674Z,32.65
2022-07-30T10:21:32.600Z,32.91
2022-07-30T10:24:04.162Z,32.80
2022-07-30T10:26:37.339Z,32.78
2022-07-30T10:29:07.307Z,32.26
2022-07-30T10:31:48.073Z,32.07
2022-07-30T10:34:19.034Z,31.86
2022-07-30T10:37:06.847Z,32.26
2022-07-30T10:40:11.162Z,32.38
2022-07-30T10:43:23.343Z,32.18
2022-07-30T10:46:30.637Z,32.14
2022-07-30T10:49:19.132Z,32.06
2022-07-30T10:51:59.986Z,32.15
2022-07-30T10:54:41.065Z,32.20
2022-07-30T10:57:22.401Z,32.10
2022-07-30T10:59:55.680Z,31.67
2022-07-30T11:02:25.635Z,31.62
2022-07-30T11:05:18.181Z,31.77
2022-07-30T11:07:47.901Z,31.84
2022-07-30T11:10:44.005Z,31.78
2022-07-30T11:13:11.228Z,31.53
2022-07-30T11:16:00.462Z,31.89
2022-07-30T11:18:33.105Z,32.01
2022-07-30T11:21:21.252Z,32.23
2022-07-30T11:23:54.668Z,32.47
2022-07-30T11:26:41.733Z,32.75
2022-07-30T11:29:51.181Z,33.11
2022-07-30T11:32:34.737Z,33.31
2022-07-30T11:35:25.456Z,34.12
2022-07-30T11:38:06.998Z,34.49
2022-07-30T11:41:00.839Z,34.60
2022-07-30T11:43:35.915Z,34.63
2022-07-30T11:46:17.950Z,34.23
2022-07-30T11:49:12.795Z,33.38
2022-07-30T11:51:46.030Z,33.35
2022-07-30T11:54:15.181Z,33.70
2022-07-30T11:57:08.393Z,33.50
2022-07-30T11:59:56.328Z,33.65
2022-07-30T12:02:29.467Z,33.96
2022-07-30T12:04:56.385Z,34.11
2022-07-30T12:07:25.856Z,34.43
2022-07-30T12:09:52.788Z,34.66
2022-07-30T12:12:25.719Z,34.56
2022-07-30T12:15:01.732Z,33.91
2022-07-30T12:17:45.506Z,33.54
2022-07-30T12:20:20.781Z,34.08
2022-07-30T12:22:48.052Z,34.50
2022-07-30T12:25:17.824Z,34.57
2022-07-30T12:27:52.345Z,34.94
2022-07-30T12:30:24.526Z,34.86
2022-07-30T12:32:51.673Z,35.04
2022-07-30T12:35:18.659Z,35.03
2022-07-30T12:38:04.305Z,34.21
2022-07-30T12:40:31.468Z,33.94
2022-07-30T12:42:58.606Z,33.48
2022-07-30T12:45:52.324Z,33.77
2022-07-30T12:48:24.025Z,33.97
2022-07-30T12:51:11.354Z,33.92
2022-07-30T12:53:43.013Z,34.14
2022-07-30T12:56:15.505Z,34.12
2022-07-30T12:58:43.124Z,33.85
2022-07-30T13:01:13.147Z,34.13
2022-07-30T13:03:45.659Z,34.17
2022-07-30T13:06:25.495Z,34.30
2022-07-30T13:08:58.682Z,34.32
2022-07-30T13:11:49.261Z,34.54
2022-07-30T13:14:19.261Z,34.56
2022-07-30T13:16:56.190Z,34.23
2022-07-30T13:19:25.705Z,34.09
2022-07-30T13:22:02.281Z,33.81
2022-07-30T13:24:32.579Z,33.75
2022-07-30T13:27:02.107Z,33.84
2022-07-30T13:29:30.111Z,33.85
2022-07-30T13:32:01.524Z,33.93
2022-07-30T13:34:30.729Z,34.14
2022-07-30T13:36:57.694Z,34.22
2022-07-30T13:39:26.856Z,34.26
2022-07-30T13:41:55.858Z,34.37
2022-07-30T13:44:22.781Z,33.88
2022-07-30T13:46:51.881Z,33.82
2022-07-30T13:49:18.783Z,33.75
2022-07-30T13:51:48.196Z,33.63
2022-07-30T13:54:15.686Z,33.80
2022-07-30T13:56:44.755Z,33.82
2022-07-30T13:59:13.923Z,33.66
2022-07-30T14:01:43.074Z,33.59
2022-07-30T14:04:10.046Z,33.81
2022-07-30T14:06:37.253Z,33.89
2022-07-30T14:09:04.567Z,33.98
2022-07-30T14:11:32.103Z,34.09
2022-07-30T14:13:59.007Z,33.90
2022-07-30T14:16:44.594Z,33.95
2022-07-30T14:19:12.365Z,33.66
2022-07-30T14:21:51.043Z,34.05
2022-07-30T14:24:17.967Z,33.96
2022-07-30T14:26:44.931Z,34.13
2022-07-30T14:29:12.055Z,33.84
2022-07-30T14:31:40.379Z,34.16
2022-07-30T14:34:07.677Z,34.31
2022-07-30T14:36:37.750Z,34.15
2022-07-30T14:39:05.561Z,33.94
2022-07-30T14:41:38.627Z,33.83
2022-07-30T14:44:12.389Z,33.93
2022-07-30T14:46:52.326Z,34.04
2022-07-30T14:49:24.343Z,33.98
2022-07-30T14:51:56.227Z,33.91
2022-07-30T14:54:23.408Z,33.72
2022-07-30T14:56:59.039Z,33.34
2022-07-30T14:59:31.315Z,33.51
2022-07-30T15:01:58.417Z,33.33
2022-07-30T15:04:27.581Z,33.41
2022-07-30T15:06:59.710Z,33.56
2022-07-30T15:09:30.476Z,33.40
2022-07-30T15:12:08.954Z,33.27
2022-07-30T15:14:41.777Z,33.33
2022-07-30T15:17:13.943Z,33.33
2022-07-30T15:19:50.387Z,33.43
2022-07-30T15:22:19.924Z,33.69
2022-07-30T15:24:51.923Z,33.98
2022-07-30T15:27:19.304Z,34.00
2022-07-30T15:29:49.469Z,33.68
2022-07-30T15:32:17.298Z,33.51
2022-07-30T15:34:46.819Z,33.48
2022-07-30T15:37:15.942Z,33.08
2022-07-30T15:39:43.589Z,32.88
2022-07-30T15:42:15.724Z,32.67
2022-07-30T15:44:48.615Z,32.64
2022-07-30T15:47:18.743Z,32.83
2022-07-30T15:49:46.016Z,32.60
2022-07-30T15:52:13.858Z,32.42
2022-07-30T15:54:43.432Z,32.68
2022-07-30T15:57:12.625Z,32.21
2022-07-30T15:59:42.111Z,32.05
2022-07-30T16:02:09.522Z,31.76
2022-07-30T16:04:39.247Z,31.71
2022-07-30T16:07:08.345Z,31.46
2022-07-30T16:09:35.479Z,31.05
2022-07-30T16:12:02.955Z,30.86
2022-07-30T16:14:30.341Z,30.69
2022-07-30T16:17:02.398Z,30.35
2022-07-30T16:19:31.878Z,29.96
2022-07-30T16:21:58.952Z,30.15
2022-07-30T16:24:26.086Z,29.79
2022-07-30T16:26:55.694Z,29.57
2022-07-30T16:29:22.851Z,28.84
2022-07-30T16:31:52.894Z,28.37
2022-07-30T16:34:26.351Z,27.92
2022-07-30T16:36:54.119Z,26.77
2022-07-30T16:39:21.204Z,26.36
2022-07-30T16:41:48.331Z,26.64
2022-07-30T16:44:15.806Z,26.50
2022-07-30T16:46:45.481Z,26.59
2022-07-30T16:49:14.961Z,26.67
2022-07-30T16:51:47.683Z,26.31
2022-07-30T16:54:17.501Z,26.23
2022-07-30T16:56:47.501Z,26.06
2022-07-30T16:59:14.670Z,25.96
2022-07-30T17:01:41.641Z,26.37
2022-07-30T17:04:08.822Z,26.32
2022-07-30T17:06:36.375Z,26.57
2022-07-30T17:09:03.631Z,26.83
2022-07-30T17:11:47.550Z,26.54
2022-07-30T17:14:19.675Z,26.32
2022-07-30T17:16:46.888Z,26.04
2022-07-30T17:19:13.836Z,25.52
2022-07-30T17:21:40.857Z,25.34
2022-07-30T17:24:13.898Z,25.39
2022-07-30T17:26:44.984Z,24.96
2022-07-30T17:29:18.250Z,24.92
2022-07-30T17:31:50.730Z,25.20
2022-07-30T17:34:20.893Z,25.23
2022-07-30T17:36:52.354Z,25.24
2022-07-30T17:40:19.309Z,25.14
2022-07-30T17:42:15.509Z,25.34
2022-07-30T17:44:45.551Z,24.96
2022-07-30T17:47:16.359Z,25.11
2022-07-30T17:49:44.254Z,25.04
2022-07-30T17:52:11.508Z,25.15
2022-07-30T17:54:38.738Z,25.07
2022-07-30T17:57:06.160Z,25.24
2022-07-30T17:59:33.291Z,25.51
2022-07-30T18:02:04.585Z,25.39
2022-07-30T18:04:32.359Z,25.29
2022-07-30T18:06:59.614Z,24.86
2022-07-30T18:09:30.136Z,24.74
2022-07-30T18:12:08.416Z,24.98
2022-07-30T18:14:35.702Z,25.01
2022-07-30T18:17:03.706Z,24.82
2022-07-30T18:19:33.252Z,24.98
2022-07-30T18:22:05.451Z,25.08
2022-07-30T18:24:33.827Z,25.00
2022-07-30T18:27:07.699Z,24.79
2022-07-30T18:29:35.166Z,24.57
2022-07-30T18:32:02.706Z,24.77
2022-07-30T18:34:35.266Z,25.02
2022-07-30T18:37:02.462Z,25.14
2022-07-30T18:39:29.830Z,24.89
2022-07-30T18:41:58.374Z,24.69
2022-07-30T18:44:25.262Z,24.63
2022-07-30T18:46:52.512Z,24.52
2022-07-30T18:49:36.010Z,24.28
2022-07-30T18:52:05.126Z,24.53
2022-07-30T18:54:32.448Z,24.53
2022-07-30T18:56:59.738Z,24.30
2022-07-30T18:59:29.871Z,24.30
2022-07-30T19:01:57.231Z,24.50
2022-07-30T19:04:24.597Z,24.62
2022-07-30T19:06:54.359Z,24.50
2022-07-30T19:11:51.085Z,24.20
2022-07-30T19:14:18.536Z,24.41
2022-07-30T19:16:46.207Z,24.38
2022-07-30T19:19:15.072Z,24.42
2022-07-30T19:21:42.417Z,24.40
2022-07-30T19:24:12.537Z,24.38
2022-07-30T19:26:39.958Z,24.54
2022-07-30T19:29:10.405Z,24.24
2022-07-30T19:31:41.765Z,24.31
2022-07-30T19:34:10.921Z,24.34
2022-07-30T19:36:40.871Z,24.47
2022-07-30T19:39:15.972Z,24.58
2022-07-30T19:44:41.123Z,24.63
2022-07-30T19:47:11.358Z,24.69
2022-07-30T19:49:43.273Z,24.58
2022-07-30T19:52:23.672Z,24.71
2022-07-30T19:54:52.731Z,24.49
2022-07-30T19:57:22.175Z,24.70
2022-07-30T20:00:00.230Z,24.80
2022-07-30T20:02:35.746Z,24.65
2022-07-30T20:05:10.908Z,24.67
2022-07-30T20:07:40.598Z,24.66
2022-07-30T20:10:10.810Z,24.57
2022-07-30T20:12:42.025Z,24.64
2022-07-30T20:15:14.782Z,24.80
2022-07-30T20:17:46.498Z,24.71
2022-07-30T20:20:18.405Z,24.78
2022-07-30T20:22:53.934Z,24.76
2022-07-30T20:25:21.795Z,24.67
2022-07-30T20:27:48.759Z,24.71
2022-07-30T20:30:16.353Z,24.67
2022-07-30T20:32:52.707Z,24.68
2022-07-30T20:35:21.486Z,24.71
2022-07-30T20:37:55.519Z,24.72
2022-07-30T20:40:26.791Z,24.65
2022-07-30T20:42:57.921Z,24.70
2022-07-30T20:45:40.276Z,24.71
2022-07-30T20:48:16.967Z,24.46
2022-07-30T20:53:37.223Z,24.78
2022-07-30T20:56:10.155Z,24.63
2022-07-30T20:58:37.855Z,24.50
2022-07-30T21:01:05.145Z,24.46
2022-07-30T21:03:34.583Z,24.27
2022-07-30T21:06:06.187Z,24.32
2022-07-30T21:08:34.023Z,24.40
2022-07-30T21:11:03.286Z,24.26
2022-07-30T21:13:30.636Z,24.13
2022-07-30T21:16:02.760Z,24.15
2022-07-30T21:18:31.607Z,24.04
2022-07-30T21:21:05.687Z,24.09
2022-07-30T21:23:33.515Z,24.04
2022-07-30T21:26:10.513Z,24.10
2022-07-30T21:28:40.848Z,24.07
2022-07-30T21:31:10.970Z,24.16
2022-07-30T21:33:40.679Z,24.20
2022-07-30T21:36:10.318Z,24.18
2022-07-30T21:38:42.529Z,24.20
2022-07-30T21:41:14.051Z,24.12
2022-07-30T21:43:44.121Z,24.34
2022-07-30T21:46:12.449Z,24.26
2022-07-30T21:48:45.890Z,24.34
2022-07-30T21:51:13.869Z,24.27
2022-07-30T21:53:46.308Z,24.34
2022-07-30T21:56:15.835Z,24.30
2022-07-30T21:58:44.197Z,24.25
2022-07-30T22:01:17.823Z,24.02
2022-07-30T22:04:01.198Z,24.11
2022-07-30T22:06:34.929Z,24.11
2022-07-30T22:09:10.121Z,24.02
2022-07-30T22:11:46.999Z,24.10
2022-07-30T22:14:14.334Z,24.09
2022-07-30T22:16:46.208Z,24.12
2022-07-30T22:19:14.998Z,24.19
2022-07-30T22:21:46.599Z,24.19
2022-07-30T22:24:29.828Z,24.22
2022-07-30T22:27:11.759Z,24.09
2022-07-30T22:29:43.385Z,24.18
2022-07-30T22:32:12.050Z,24.20
2022-07-30T22:34:39.535Z,24.08
2022-07-30T22:37:09.226Z,24.05
2022-07-30T22:39:51.637Z,24.06
2022-07-30T22:42:24.080Z,24.02
2022-07-30T22:44:55.474Z,24.06
2022-07-30T22:47:54.108Z,24.05
2022-07-30T22:50:17.256Z,23.80
2022-07-30T22:53:01.835Z,23.86
2022-07-30T22:55:41.109Z,23.95
2022-07-30T22:58:08.383Z,23.88
2022-07-30T23:00:37.080Z,23.90
2022-07-30T23:03:07.804Z,23.95
2022-07-30T23:05:35.765Z,23.91
2022-07-30T23:08:06.028Z,23.98
2022-07-30T23:10:33.324Z,23.87
2022-07-30T23:12:17.617Z,24.32
2022-07-30T23:12:19.261Z,24.61
2022-07-30T23:13:03.310Z,23.93
2022-07-30T23:15:30.568Z,23.87
2022-07-30T23:17:57.866Z,23.89
2022-07-30T23:20:29.619Z,23.92
2022-07-30T23:22:59.291Z,23.46
2022-07-30T23:25:38.636Z,23.83
2022-07-30T23:28:06.662Z,23.98
2022-07-30T23:30:36.082Z,23.92
2022-07-30T23:33:08.735Z,23.97
2022-07-30T23:35:35.958Z,23.89
2022-07-30T23:38:03.367Z,23.70
2022-07-30T23:40:33.279Z,23.68
2022-07-30T23:43:03.281Z,23.75
2022-07-30T23:45:32.844Z,23.72
2022-07-30T23:48:05.795Z,23.74
2022-07-30T23:50:33.815Z,23.68
2022-07-30T23:53:07.037Z,23.71
2022-07-30T23:55:34.494Z,23.63
2022-07-30T23:58:01.916Z,23.73
